sensor_id;sensor_type;location;lat;lon;timestamp;temperature;humidity
39751;DHT22;37579;51.074;17.004;2023-08-12T00:01:50;25.20;52.50
39751;DHT22;37579;51.074;17.004;2023-08-12T00:04:16;25.30;52.40
39751;DHT22;37579;51.074;17.004;2023-08-12T00:06:42;25.30;52.40
39751;DHT22;37579;51.074;17.004;2023-08-12T00:09:09;25.30;52.50
39751;DHT22;37579;51.074;17.004;2023-08-12T00:11:37;25.30;52.40
39751;DHT22;37579;51.074;17.004;2023-08-12T00:14:03;25.20;52.40
39751;DHT22;37579;51.074;17.004;2023-08-12T00:16:29;25.20;52.60
39751;DHT22;37579;51.074;17.004;2023-08-12T00:18:55;25.20;52.50
39751;DHT22;37579;51.074;17.004;2023-08-12T00:21:21;25.20;52.40
39751;DHT22;37579;51.074;17.004;2023-08-12T00:23:47;25.20;52.50
39751;DHT22;37579;51.074;17.004;2023-08-12T00:26:15;25.20;52.50
39751;DHT22;37579;51.074;17.004;2023-08-12T00:28:41;25.20;52.60
39751;DHT22;37579;51.074;17.004;2023-08-12T00:31:07;25.20;52.50
39751;DHT22;37579;51.074;17.004;2023-08-12T00:33:33;25.20;52.60
39751;DHT22;37579;51.074;17.004;2023-08-12T00:35:59;25.30;52.70
39751;DHT22;37579;51.074;17.004;2023-08-12T00:38:25;25.20;52.40
39751;DHT22;37579;51.074;17.004;2023-08-12T00:40:51;25.20;52.60
39751;DHT22;37579;51.074;17.004;2023-08-12T00:43:16;25.20;52.60
39751;DHT22;37579;51.074;17.004;2023-08-12T00:45:42;25.20;52.50
39751;DHT22;37579;51.074;17.004;2023-08-12T00:48:08;25.20;52.50
39751;DHT22;37579;51.074;17.004;2023-08-12T00:50:36;25.20;52.60
39751;DHT22;37579;51.074;17.004;2023-08-12T00:53:03;25.20;52.60
39751;DHT22;37579;51.074;17.004;2023-08-12T00:55:35;25.20;52.60
39751;DHT22;37579;51.074;17.004;2023-08-12T00:58:02;25.20;52.50
39751;DHT22;37579;51.074;17.004;2023-08-12T01:00:28;25.20;52.60
39751;DHT22;37579;51.074;17.004;2023-08-12T01:02:54;25.20;52.50
39751;DHT22;37579;51.074;17.004;2023-08-12T01:05:22;25.20;52.60
39751;DHT22;37579;51.074;17.004;2023-08-12T01:07:47;25.20;52.70
39751;DHT22;37579;51.074;17.004;2023-08-12T01:10:14;25.20;52.70
39751;DHT22;37579;51.074;17.004;2023-08-12T01:12:49;25.20;52.60
39751;DHT22;37579;51.074;17.004;2023-08-12T01:15:21;25.20;52.60
39751;DHT22;37579;51.074;17.004;2023-08-12T01:17:49;25.20;52.60
39751;DHT22;37579;51.074;17.004;2023-08-12T01:20:20;25.20;52.70
39751;DHT22;37579;51.074;17.004;2023-08-12T01:22:57;25.20;52.60
39751;DHT22;37579;51.074;17.004;2023-08-12T01:25:25;25.20;52.50
39751;DHT22;37579;51.074;17.004;2023-08-12T01:27:51;25.20;52.50
39751;DHT22;37579;51.074;17.004;2023-08-12T01:30:18;25.20;52.70
39751;DHT22;37579;51.074;17.004;2023-08-12T01:33:09;25.20;52.60
39751;DHT22;37579;51.074;17.004;2023-08-12T01:35:40;25.20;52.70
39751;DHT22;37579;51.074;17.004;2023-08-12T01:38:08;25.20;52.60
39751;DHT22;37579;51.074;17.004;2023-08-12T01:40:36;25.10;52.70
39751;DHT22;37579;51.074;17.004;2023-08-12T01:43:04;25.20;52.60
39751;DHT22;37579;51.074;17.004;2023-08-12T01:45:31;25.20;52.60
39751;DHT22;37579;51.074;17.004;2023-08-12T01:48:01;25.20;52.60
39751;DHT22;37579;51.074;17.004;2023-08-12T01:50:27;25.20;52.60
39751;DHT22;37579;51.074;17.004;2023-08-12T01:52:52;25.20;52.60
39751;DHT22;37579;51.074;17.004;2023-08-12T01:55:18;25.20;52.60
39751;DHT22;37579;51.074;17.004;2023-08-12T01:57:44;25.20;52.70
39751;DHT22;37579;51.074;17.004;2023-08-12T02:00:11;25.20;52.60
39751;DHT22;37579;51.074;17.004;2023-08-12T02:02:43;25.20;52.70
39751;DHT22;37579;51.074;17.004;2023-08-12T02:05:13;25.20;52.60
39751;DHT22;37579;51.074;17.004;2023-08-12T02:07:38;25.20;52.70
39751;DHT22;37579;51.074;17.004;2023-08-12T02:10:04;25.20;52.60
39751;DHT22;37579;51.074;17.004;2023-08-12T02:12:31;25.20;52.60
39751;DHT22;37579;51.074;17.004;2023-08-12T02:14:57;25.10;52.50
39751;DHT22;37579;51.074;17.004;2023-08-12T02:17:23;25.20;52.60
39751;DHT22;37579;51.074;17.004;2023-08-12T02:19:51;25.20;52.60
39751;DHT22;37579;51.074;17.004;2023-08-12T02:22:16;25.20;52.60
39751;DHT22;37579;51.074;17.004;2023-08-12T02:24:42;25.20;52.70
39751;DHT22;37579;51.074;17.004;2023-08-12T02:27:08;25.20;52.70
39751;DHT22;37579;51.074;17.004;2023-08-12T02:29:34;25.20;52.50
39751;DHT22;37579;51.074;17.004;2023-08-12T02:32:00;25.10;52.60
39751;DHT22;37579;51.074;17.004;2023-08-12T02:34:25;25.10;52.60
39751;DHT22;37579;51.074;17.004;2023-08-12T02:36:52;25.20;52.60
39751;DHT22;37579;51.074;17.004;2023-08-12T02:39:18;25.10;52.60
39751;DHT22;37579;51.074;17.004;2023-08-12T02:41:44;25.20;52.70
39751;DHT22;37579;51.074;17.004;2023-08-12T02:44:09;25.10;52.60
39751;DHT22;37579;51.074;17.004;2023-08-12T02:46:35;25.20;52.60
39751;DHT22;37579;51.074;17.004;2023-08-12T02:49:01;25.20;52.60
39751;DHT22;37579;51.074;17.004;2023-08-12T02:51:27;25.20;52.60
39751;DHT22;37579;51.074;17.004;2023-08-12T02:53:53;25.10;52.50
39751;DHT22;37579;51.074;17.004;2023-08-12T02:56:19;25.10;52.60
39751;DHT22;37579;51.074;17.004;2023-08-12T02:58:44;25.10;52.60
39751;DHT22;37579;51.074;17.004;2023-08-12T03:01:10;25.10;52.60
39751;DHT22;37579;51.074;17.004;2023-08-12T03:03:36;25.10;52.60
39751;DHT22;37579;51.074;17.004;2023-08-12T03:06:02;25.20;52.50
39751;DHT22;37579;51.074;17.004;2023-08-12T03:08:29;25.10;52.60
39751;DHT22;37579;51.074;17.004;2023-08-12T03:10:59;25.10;52.60
39751;DHT22;37579;51.074;17.004;2023-08-12T03:13:25;25.10;52.70
39751;DHT22;37579;51.074;17.004;2023-08-12T03:15:51;25.10;52.60
39751;DHT22;37579;51.074;17.004;2023-08-12T03:18:17;25.10;52.60
39751;DHT22;37579;51.074;17.004;2023-08-12T03:20:43;25.10;52.60
39751;DHT22;37579;51.074;17.004;2023-08-12T03:23:08;25.10;52.60
39751;DHT22;37579;51.074;17.004;2023-08-12T03:25:34;25.10;52.60
39751;DHT22;37579;51.074;17.004;2023-08-12T03:28:01;25.10;52.60
39751;DHT22;37579;51.074;17.004;2023-08-12T03:30:27;25.10;52.60
39751;DHT22;37579;51.074;17.004;2023-08-12T03:32:54;25.10;52.70
39751;DHT22;37579;51.074;17.004;2023-08-12T03:35:20;25.10;52.70
39751;DHT22;37579;51.074;17.004;2023-08-12T03:37:46;25.10;52.70
39751;DHT22;37579;51.074;17.004;2023-08-12T03:40:12;25.10;52.70
39751;DHT22;37579;51.074;17.004;2023-08-12T03:42:39;25.10;52.60
39751;DHT22;37579;51.074;17.004;2023-08-12T03:45:06;25.10;52.60
39751;DHT22;37579;51.074;17.004;2023-08-12T03:47:32;25.10;52.60
39751;DHT22;37579;51.074;17.004;2023-08-12T03:49:57;25.10;52.50
39751;DHT22;37579;51.074;17.004;2023-08-12T03:52:23;25.10;52.60
39751;DHT22;37579;51.074;17.004;2023-08-12T03:54:49;25.10;52.60
39751;DHT22;37579;51.074;17.004;2023-08-12T03:57:15;25.10;52.60
39751;DHT22;37579;51.074;17.004;2023-08-12T03:59:41;25.10;52.60
39751;DHT22;37579;51.074;17.004;2023-08-12T04:02:07;25.10;52.50
39751;DHT22;37579;51.074;17.004;2023-08-12T04:04:33;25.10;52.60
39751;DHT22;37579;51.074;17.004;2023-08-12T04:06:58;25.10;52.70
39751;DHT22;37579;51.074;17.004;2023-08-12T04:09:24;25.10;52.70
39751;DHT22;37579;51.074;17.004;2023-08-12T04:11:50;25.10;52.70
39751;DHT22;37579;51.074;17.004;2023-08-12T04:14:16;25.10;52.80
39751;DHT22;37579;51.074;17.004;2023-08-12T04:16:42;25.10;52.60
39751;DHT22;37579;51.074;17.004;2023-08-12T04:19:08;25.10;52.90
39751;DHT22;37579;51.074;17.004;2023-08-12T04:21:34;25.10;52.80
39751;DHT22;37579;51.074;17.004;2023-08-12T04:24:00;25.10;52.90
39751;DHT22;37579;51.074;17.004;2023-08-12T04:26:26;25.10;52.90
39751;DHT22;37579;51.074;17.004;2023-08-12T04:28:53;25.10;52.80
39751;DHT22;37579;51.074;17.004;2023-08-12T04:31:20;25.10;52.90
39751;DHT22;37579;51.074;17.004;2023-08-12T04:33:48;25.10;52.80
39751;DHT22;37579;51.074;17.004;2023-08-12T04:36:16;25.10;53.70
39751;DHT22;37579;51.074;17.004;2023-08-12T04:38:42;25.10;53.00
39751;DHT22;37579;51.074;17.004;2023-08-12T04:41:09;25.20;53.10
39751;DHT22;37579;51.074;17.004;2023-08-12T04:43:35;25.20;53.20
39751;DHT22;37579;51.074;17.004;2023-08-12T04:46:02;25.20;53.10
39751;DHT22;37579;51.074;17.004;2023-08-12T04:48:28;25.20;53.20
39751;DHT22;37579;51.074;17.004;2023-08-12T04:50:54;25.20;53.30
39751;DHT22;37579;51.074;17.004;2023-08-12T04:53:25;25.20;53.30
39751;DHT22;37579;51.074;17.004;2023-08-12T04:55:54;25.20;53.50
39751;DHT22;37579;51.074;17.004;2023-08-12T04:58:20;25.20;53.60
39751;DHT22;37579;51.074;17.004;2023-08-12T05:00:47;25.20;53.60
39751;DHT22;37579;51.074;17.004;2023-08-12T05:03:13;25.20;53.40
39751;DHT22;37579;51.074;17.004;2023-08-12T05:05:39;25.20;53.40
39751;DHT22;37579;51.074;17.004;2023-08-12T05:08:06;25.30;53.20
39751;DHT22;37579;51.074;17.004;2023-08-12T05:10:33;25.40;52.90
39751;DHT22;37579;51.074;17.004;2023-08-12T05:12:59;25.40;52.80
39751;DHT22;37579;51.074;17.004;2023-08-12T05:15:25;25.40;52.90
39751;DHT22;37579;51.074;17.004;2023-08-12T05:17:51;25.50;52.70
39751;DHT22;37579;51.074;17.004;2023-08-12T05:20:20;25.50;52.90
39751;DHT22;37579;51.074;17.004;2023-08-12T05:22:46;25.50;52.90
39751;DHT22;37579;51.074;17.004;2023-08-12T05:25:12;25.50;53.40
39751;DHT22;37579;51.074;17.004;2023-08-12T05:27:38;25.60;52.90
39751;DHT22;37579;51.074;17.004;2023-08-12T05:30:04;25.70;51.90
39751;DHT22;37579;51.074;17.004;2023-08-12T05:32:30;25.70;52.50
39751;DHT22;37579;51.074;17.004;2023-08-12T05:34:56;25.80;52.40
39751;DHT22;37579;51.074;17.004;2023-08-12T05:37:22;25.90;51.60
39751;DHT22;37579;51.074;17.004;2023-08-12T05:39:47;25.90;51.50
39751;DHT22;37579;51.074;17.004;2023-08-12T05:42:13;26.00;51.40
39751;DHT22;37579;51.074;17.004;2023-08-12T05:44:41;26.00;51.40
39751;DHT22;37579;51.074;17.004;2023-08-12T05:47:06;26.10;51.50
39751;DHT22;37579;51.074;17.004;2023-08-12T05:49:32;26.10;51.30
39751;DHT22;37579;51.074;17.004;2023-08-12T05:51:58;26.20;51.00
39751;DHT22;37579;51.074;17.004;2023-08-12T05:54:24;26.30;50.90
39751;DHT22;37579;51.074;17.004;2023-08-12T05:56:49;26.40;50.80
39751;DHT22;37579;51.074;17.004;2023-08-12T05:59:15;26.90;49.80
39751;DHT22;37579;51.074;17.004;2023-08-12T06:01:41;27.70;47.80
39751;DHT22;37579;51.074;17.004;2023-08-12T06:04:07;27.90;47.30
39751;DHT22;37579;51.074;17.004;2023-08-12T06:06:32;27.60;48.10
39751;DHT22;37579;51.074;17.004;2023-08-12T06:08:58;27.70;47.90
39751;DHT22;37579;51.074;17.004;2023-08-12T06:11:24;28.10;47.10
39751;DHT22;37579;51.074;17.004;2023-08-12T06:13:50;28.20;46.70
39751;DHT22;37579;51.074;17.004;2023-08-12T06:16:15;28.30;46.80
39751;DHT22;37579;51.074;17.004;2023-08-12T06:18:41;28.60;46.00
39751;DHT22;37579;51.074;17.004;2023-08-12T06:21:07;28.40;46.40
39751;DHT22;37579;51.074;17.004;2023-08-12T06:23:33;28.60;45.90
39751;DHT22;37579;51.074;17.004;2023-08-12T06:25:59;28.70;45.70
39751;DHT22;37579;51.074;17.004;2023-08-12T06:28:25;28.50;46.30
39751;DHT22;37579;51.074;17.004;2023-08-12T06:30:50;28.40;46.70
39751;DHT22;37579;51.074;17.004;2023-08-12T06:33:16;28.20;47.30
39751;DHT22;37579;51.074;17.004;2023-08-12T06:35:42;27.90;48.10
39751;DHT22;37579;51.074;17.004;2023-08-12T06:38:08;27.60;49.40
39751;DHT22;37579;51.074;17.004;2023-08-12T06:40:37;27.40;49.40
39751;DHT22;37579;51.074;17.004;2023-08-12T06:43:03;27.30;49.90
39751;DHT22;37579;51.074;17.004;2023-08-12T06:45:29;27.20;50.30
39751;DHT22;37579;51.074;17.004;2023-08-12T06:47:54;27.10;50.50
39751;DHT22;37579;51.074;17.004;2023-08-12T06:50:20;27.00;50.80
39751;DHT22;37579;51.074;17.004;2023-08-12T06:52:46;26.90;51.10
39751;DHT22;37579;51.074;17.004;2023-08-12T06:55:12;26.90;51.30
39751;DHT22;37579;51.074;17.004;2023-08-12T06:57:37;26.90;51.60
39751;DHT22;37579;51.074;17.004;2023-08-12T07:00:04;26.80;51.60
39751;DHT22;37579;51.074;17.004;2023-08-12T07:02:30;26.80;51.90
39751;DHT22;37579;51.074;17.004;2023-08-12T07:04:56;26.70;52.10
39751;DHT22;37579;51.074;17.004;2023-08-12T07:07:22;26.70;52.20
39751;DHT22;37579;51.074;17.004;2023-08-12T07:09:48;26.70;52.30
39751;DHT22;37579;51.074;17.004;2023-08-12T07:12:14;26.70;52.50
39751;DHT22;37579;51.074;17.004;2023-08-12T07:14:40;26.70;52.60
39751;DHT22;37579;51.074;17.004;2023-08-12T07:17:05;26.60;52.50
39751;DHT22;37579;51.074;17.004;2023-08-12T07:19:31;26.60;52.70
39751;DHT22;37579;51.074;17.004;2023-08-12T07:21:57;26.60;52.70
39751;DHT22;37579;51.074;17.004;2023-08-12T07:24:23;26.60;52.80
39751;DHT22;37579;51.074;17.004;2023-08-12T07:26:48;26.60;52.90
39751;DHT22;37579;51.074;17.004;2023-08-12T07:29:14;26.60;53.00
39751;DHT22;37579;51.074;17.004;2023-08-12T07:31:40;26.60;53.60
39751;DHT22;37579;51.074;17.004;2023-08-12T07:34:06;26.60;53.00
39751;DHT22;37579;51.074;17.004;2023-08-12T07:36:32;26.60;53.00
39751;DHT22;37579;51.074;17.004;2023-08-12T07:38:58;26.60;53.00
39751;DHT22;37579;51.074;17.004;2023-08-12T07:41:24;26.60;53.00
39751;DHT22;37579;51.074;17.004;2023-08-12T07:43:53;26.60;53.10
39751;DHT22;37579;51.074;17.004;2023-08-12T07:46:19;26.60;53.10
39751;DHT22;37579;51.074;17.004;2023-08-12T07:48:45;26.70;53.20
39751;DHT22;37579;51.074;17.004;2023-08-12T07:51:10;26.70;53.20
39751;DHT22;37579;51.074;17.004;2023-08-12T07:53:36;26.70;53.30
39751;DHT22;37579;51.074;17.004;2023-08-12T07:56:02;26.70;53.30
39751;DHT22;37579;51.074;17.004;2023-08-12T07:58:28;26.70;53.30
39751;DHT22;37579;51.074;17.004;2023-08-12T08:00:53;26.70;53.30
39751;DHT22;37579;51.074;17.004;2023-08-12T08:03:19;26.70;53.40
39751;DHT22;37579;51.074;17.004;2023-08-12T08:05:45;26.70;53.40
39751;DHT22;37579;51.074;17.004;2023-08-12T08:08:13;26.70;53.40
39751;DHT22;37579;51.074;17.004;2023-08-12T08:10:38;26.70;53.40
39751;DHT22;37579;51.074;17.004;2023-08-12T08:13:04;26.80;53.50
39751;DHT22;37579;51.074;17.004;2023-08-12T08:15:30;26.70;53.50
39751;DHT22;37579;51.074;17.004;2023-08-12T08:17:56;26.70;53.50
39751;DHT22;37579;51.074;17.004;2023-08-12T08:20:22;26.70;53.50
39751;DHT22;37579;51.074;17.004;2023-08-12T08:22:48;26.70;53.50
39751;DHT22;37579;51.074;17.004;2023-08-12T08:25:13;26.80;53.60
39751;DHT22;37579;51.074;17.004;2023-08-12T08:27:39;26.70;53.50
39751;DHT22;37579;51.074;17.004;2023-08-12T08:30:06;26.70;53.60
39751;DHT22;37579;51.074;17.004;2023-08-12T08:32:32;26.70;53.60
39751;DHT22;37579;51.074;17.004;2023-08-12T08:34:58;26.70;53.60
39751;DHT22;37579;51.074;17.004;2023-08-12T08:37:24;26.70;53.70
39751;DHT22;37579;51.074;17.004;2023-08-12T08:39:49;26.70;53.70
39751;DHT22;37579;51.074;17.004;2023-08-12T08:42:15;26.70;53.70
39751;DHT22;37579;51.074;17.004;2023-08-12T08:44:44;26.70;53.70
39751;DHT22;37579;51.074;17.004;2023-08-12T08:47:13;26.70;53.70
39751;DHT22;37579;51.074;17.004;2023-08-12T08:49:40;26.60;53.70
39751;DHT22;37579;51.074;17.004;2023-08-12T08:52:07;26.70;53.80
39751;DHT22;37579;51.074;17.004;2023-08-12T08:54:34;26.60;53.70
39751;DHT22;37579;51.074;17.004;2023-08-12T08:57:00;26.70;53.80
39751;DHT22;37579;51.074;17.004;2023-08-12T08:59:26;26.60;53.70
39751;DHT22;37579;51.074;17.004;2023-08-12T09:01:51;26.60;53.80
39751;DHT22;37579;51.074;17.004;2023-08-12T09:04:21;26.60;53.70
39751;DHT22;37579;51.074;17.004;2023-08-12T09:06:48;26.70;53.80
39751;DHT22;37579;51.074;17.004;2023-08-12T09:09:16;26.60;53.80
39751;DHT22;37579;51.074;17.004;2023-08-12T09:11:45;26.60;53.80
39751;DHT22;37579;51.074;17.004;2023-08-12T09:14:11;26.60;53.70
39751;DHT22;37579;51.074;17.004;2023-08-12T09:16:37;26.60;53.60
39751;DHT22;37579;51.074;17.004;2023-08-12T09:19:03;26.60;53.70
39751;DHT22;37579;51.074;17.004;2023-08-12T09:21:29;26.60;53.70
39751;DHT22;37579;51.074;17.004;2023-08-12T09:23:55;26.60;53.70
39751;DHT22;37579;51.074;17.004;2023-08-12T09:26:21;26.60;53.70
39751;DHT22;37579;51.074;17.004;2023-08-12T09:28:48;26.60;53.60
39751;DHT22;37579;51.074;17.004;2023-08-12T09:31:26;26.60;53.70
39751;DHT22;37579;51.074;17.004;2023-08-12T09:33:59;26.60;53.60
39751;DHT22;37579;51.074;17.004;2023-08-12T09:36:28;26.60;53.60
39751;DHT22;37579;51.074;17.004;2023-08-12T09:38:55;26.50;53.60
39751;DHT22;37579;51.074;17.004;2023-08-12T09:41:23;26.60;53.60
39751;DHT22;37579;51.074;17.004;2023-08-12T09:43:51;26.60;53.60
39751;DHT22;37579;51.074;17.004;2023-08-12T09:46:18;26.50;53.70
39751;DHT22;37579;51.074;17.004;2023-08-12T09:48:46;26.50;53.60
39751;DHT22;37579;51.074;17.004;2023-08-12T09:51:12;26.50;53.60
39751;DHT22;37579;51.074;17.004;2023-08-12T09:53:38;26.50;53.60
39751;DHT22;37579;51.074;17.004;2023-08-12T09:56:08;26.50;53.60
39751;DHT22;37579;51.074;17.004;2023-08-12T09:58:37;26.50;53.70
39751;DHT22;37579;51.074;17.004;2023-08-12T10:01:03;26.50;53.50
39751;DHT22;37579;51.074;17.004;2023-08-12T10:03:32;26.50;53.70
39751;DHT22;37579;51.074;17.004;2023-08-12T10:05:59;26.40;53.60
39751;DHT22;37579;51.074;17.004;2023-08-12T10:08:27;26.40;53.60
39751;DHT22;37579;51.074;17.004;2023-08-12T10:10:53;26.40;53.70
39751;DHT22;37579;51.074;17.004;2023-08-12T10:13:20;26.40;53.60
39751;DHT22;37579;51.074;17.004;2023-08-12T10:15:46;26.40;53.60
39751;DHT22;37579;51.074;17.004;2023-08-12T10:18:13;26.40;53.50
39751;DHT22;37579;51.074;17.004;2023-08-12T10:20:40;26.40;53.60
39751;DHT22;37579;51.074;17.004;2023-08-12T10:23:07;26.40;53.60
39751;DHT22;37579;51.074;17.004;2023-08-12T10:25:37;26.40;53.60
39751;DHT22;37579;51.074;17.004;2023-08-12T10:28:06;26.40;53.60
39751;DHT22;37579;51.074;17.004;2023-08-12T10:30:34;26.40;53.60
39751;DHT22;37579;51.074;17.004;2023-08-12T10:33:00;26.40;53.60
39751;DHT22;37579;51.074;17.004;2023-08-12T10:35:41;26.40;53.70
39751;DHT22;37579;51.074;17.004;2023-08-12T10:38:07;26.40;53.50
39751;DHT22;37579;51.074;17.004;2023-08-12T10:40:34;26.40;53.50
39751;DHT22;37579;51.074;17.004;2023-08-12T10:42:59;26.40;53.50
39751;DHT22;37579;51.074;17.004;2023-08-12T10:45:46;26.40;53.50
39751;DHT22;37579;51.074;17.004;2023-08-12T10:48:16;26.40;53.50
39751;DHT22;37579;51.074;17.004;2023-08-12T10:50:49;26.40;53.60
39751;DHT22;37579;51.074;17.004;2023-08-12T10:53:25;26.30;53.60
39751;DHT22;37579;51.074;17.004;2023-08-12T10:55:59;26.30;53.60
39751;DHT22;37579;51.074;17.004;2023-08-12T11:00:56;26.40;53.50
39751;DHT22;37579;51.074;17.004;2023-08-12T11:03:23;26.40;53.50
39751;DHT22;37579;51.074;17.004;2023-08-12T11:05:48;26.30;53.40
39751;DHT22;37579;51.074;17.004;2023-08-12T11:08:16;26.30;53.50
39751;DHT22;37579;51.074;17.004;2023-08-12T11:10:42;26.30;53.40
39751;DHT22;37579;51.074;17.004;2023-08-12T11:13:08;26.30;53.50
39751;DHT22;37579;51.074;17.004;2023-08-12T11:15:41;26.30;53.40
39751;DHT22;37579;51.074;17.004;2023-08-12T11:18:10;26.30;53.50
39751;DHT22;37579;51.074;17.004;2023-08-12T11:20:36;26.30;53.60
39751;DHT22;37579;51.074;17.004;2023-08-12T11:23:03;26.20;53.40
39751;DHT22;37579;51.074;17.004;2023-08-12T11:25:31;26.30;53.50
39751;DHT22;37579;51.074;17.004;2023-08-12T11:27:57;26.20;53.50
39751;DHT22;37579;51.074;17.004;2023-08-12T11:30:24;26.20;53.50
39751;DHT22;37579;51.074;17.004;2023-08-12T11:32:51;26.20;53.50
39751;DHT22;37579;51.074;17.004;2023-08-12T11:35:19;26.20;53.40
39751;DHT22;37579;51.074;17.004;2023-08-12T11:37:47;26.20;53.40
39751;DHT22;37579;51.074;17.004;2023-08-12T11:40:15;26.20;53.40
39751;DHT22;37579;51.074;17.004;2023-08-12T11:42:45;26.30;53.50
39751;DHT22;37579;51.074;17.004;2023-08-12T11:45:13;26.20;53.40
39751;DHT22;37579;51.074;17.004;2023-08-12T11:47:40;26.20;53.40
39751;DHT22;37579;51.074;17.004;2023-08-12T11:50:11;26.20;53.40
39751;DHT22;37579;51.074;17.004;2023-08-12T11:52:37;26.20;53.40
39751;DHT22;37579;51.074;17.004;2023-08-12T11:55:04;26.20;53.40
39751;DHT22;37579;51.074;17.004;2023-08-12T11:57:31;26.20;53.40
39751;DHT22;37579;51.074;17.004;2023-08-12T12:00:06;26.20;53.50
39751;DHT22;37579;51.074;17.004;2023-08-12T12:02:49;26.20;53.50
39751;DHT22;37579;51.074;17.004;2023-08-12T12:05:16;26.20;53.50
39751;DHT22;37579;51.074;17.004;2023-08-12T12:07:42;26.20;53.40
39751;DHT22;37579;51.074;17.004;2023-08-12T12:10:19;26.10;53.50
39751;DHT22;37579;51.074;17.004;2023-08-12T12:12:45;26.20;53.50
39751;DHT22;37579;51.074;17.004;2023-08-12T12:15:13;26.10;53.50
39751;DHT22;37579;51.074;17.004;2023-08-12T12:17:40;26.10;53.50
39751;DHT22;37579;51.074;17.004;2023-08-12T12:20:07;26.20;53.50
39751;DHT22;37579;51.074;17.004;2023-08-12T12:22:36;26.20;53.50
39751;DHT22;37579;51.074;17.004;2023-08-12T12:25:13;26.20;53.50
39751;DHT22;37579;51.074;17.004;2023-08-12T12:27:40;26.20;53.50
39751;DHT22;37579;51.074;17.004;2023-08-12T12:30:11;26.10;53.40
39751;DHT22;37579;51.074;17.004;2023-08-12T12:32:37;26.10;53.40
39751;DHT22;37579;51.074;17.004;2023-08-12T12:35:04;26.10;53.50
39751;DHT22;37579;51.074;17.004;2023-08-12T12:37:33;26.10;53.50
39751;DHT22;37579;51.074;17.004;2023-08-12T12:39:58;26.10;53.50
39751;DHT22;37579;51.074;17.004;2023-08-12T12:42:24;26.10;53.50
39751;DHT22;37579;51.074;17.004;2023-08-12T12:44:50;26.10;53.50
39751;DHT22;37579;51.074;17.004;2023-08-12T12:47:16;26.10;53.50
39751;DHT22;37579;51.074;17.004;2023-08-12T12:49:42;26.10;54.30
39751;DHT22;37579;51.074;17.004;2023-08-12T12:52:08;26.10;53.50
39751;DHT22;37579;51.074;17.004;2023-08-12T12:54:34;26.20;53.50
39751;DHT22;37579;51.074;17.004;2023-08-12T12:57:00;26.20;53.40
39751;DHT22;37579;51.074;17.004;2023-08-12T12:59:27;26.20;53.40
39751;DHT22;37579;51.074;17.004;2023-08-12T13:01:53;26.20;53.40
39751;DHT22;37579;51.074;17.004;2023-08-12T13:04:19;26.20;53.50
39751;DHT22;37579;51.074;17.004;2023-08-12T13:06:45;26.10;53.40
39751;DHT22;37579;51.074;17.004;2023-08-12T13:09:11;26.10;53.50
39751;DHT22;37579;51.074;17.004;2023-08-12T13:11:37;26.10;53.50
39751;DHT22;37579;51.074;17.004;2023-08-12T13:14:03;26.10;53.50
39751;DHT22;37579;51.074;17.004;2023-08-12T13:16:29;26.10;53.50
39751;DHT22;37579;51.074;17.004;2023-08-12T13:18:55;26.20;53.40
39751;DHT22;37579;51.074;17.004;2023-08-12T13:21:24;26.10;53.40
39751;DHT22;37579;51.074;17.004;2023-08-12T13:23:50;26.20;53.50
39751;DHT22;37579;51.074;17.004;2023-08-12T13:26:17;26.20;53.40
39751;DHT22;37579;51.074;17.004;2023-08-12T13:28:43;26.20;53.40
39751;DHT22;37579;51.074;17.004;2023-08-12T13:31:09;26.20;53.30
39751;DHT22;37579;51.074;17.004;2023-08-12T13:33:35;26.20;53.40
39751;DHT22;37579;51.074;17.004;2023-08-12T13:36:01;26.20;53.50
39751;DHT22;37579;51.074;17.004;2023-08-12T13:38:27;26.20;53.30
39751;DHT22;37579;51.074;17.004;2023-08-12T13:40:53;26.20;53.30
39751;DHT22;37579;51.074;17.004;2023-08-12T13:43:18;26.20;53.30
39751;DHT22;37579;51.074;17.004;2023-08-12T13:45:44;26.20;53.50
39751;DHT22;37579;51.074;17.004;2023-08-12T13:48:10;26.20;53.30
39751;DHT22;37579;51.074;17.004;2023-08-12T13:50:36;26.20;53.40
39751;DHT22;37579;51.074;17.004;2023-08-12T13:53:02;26.20;53.50
39751;DHT22;37579;51.074;17.004;2023-08-12T13:55:28;26.20;53.20
39751;DHT22;37579;51.074;17.004;2023-08-12T13:57:54;26.20;53.40
39751;DHT22;37579;51.074;17.004;2023-08-12T14:00:20;26.20;53.40
39751;DHT22;37579;51.074;17.004;2023-08-12T14:02:46;26.20;53.40
39751;DHT22;37579;51.074;17.004;2023-08-12T14:05:14;26.20;53.20
39751;DHT22;37579;51.074;17.004;2023-08-12T14:07:40;26.30;53.30
39751;DHT22;37579;51.074;17.004;2023-08-12T14:10:06;26.20;53.30
39751;DHT22;37579;51.074;17.004;2023-08-12T14:12:32;26.20;53.20
39751;DHT22;37579;51.074;17.004;2023-08-12T14:14:58;26.20;53.10
39751;DHT22;37579;51.074;17.004;2023-08-12T14:17:24;26.20;53.40
39751;DHT22;37579;51.074;17.004;2023-08-12T14:19:51;26.20;53.40
39751;DHT22;37579;51.074;17.004;2023-08-12T14:22:19;26.20;53.40
39751;DHT22;37579;51.074;17.004;2023-08-12T14:24:44;26.20;53.60
39751;DHT22;37579;51.074;17.004;2023-08-12T14:27:11;26.20;53.20
39751;DHT22;37579;51.074;17.004;2023-08-12T14:29:37;26.20;53.20
39751;DHT22;37579;51.074;17.004;2023-08-12T14:32:03;26.20;53.20
39751;DHT22;37579;51.074;17.004;2023-08-12T14:34:28;26.20;53.40
39751;DHT22;37579;51.074;17.004;2023-08-12T14:36:54;26.30;53.30
39751;DHT22;37579;51.074;17.004;2023-08-12T14:39:20;26.20;53.40
39751;DHT22;37579;51.074;17.004;2023-08-12T14:41:47;26.30;53.50
39751;DHT22;37579;51.074;17.004;2023-08-12T14:44:14;26.20;53.40
39751;DHT22;37579;51.074;17.004;2023-08-12T14:46:40;26.30;53.50
39751;DHT22;37579;51.074;17.004;2023-08-12T14:49:05;26.30;53.60
39751;DHT22;37579;51.074;17.004;2023-08-12T14:51:31;26.30;53.30
39751;DHT22;37579;51.074;17.004;2023-08-12T14:53:57;26.30;53.40
39751;DHT22;37579;51.074;17.004;2023-08-12T14:56:23;26.30;53.40
39751;DHT22;37579;51.074;17.004;2023-08-12T14:58:49;26.30;53.30
39751;DHT22;37579;51.074;17.004;2023-08-12T15:01:14;26.30;53.60
39751;DHT22;37579;51.074;17.004;2023-08-12T15:03:41;26.30;53.20
39751;DHT22;37579;51.074;17.004;2023-08-12T15:06:07;26.30;53.30
39751;DHT22;37579;51.074;17.004;2023-08-12T15:08:33;26.30;53.40
39751;DHT22;37579;51.074;17.004;2023-08-12T15:10:59;26.30;53.40
39751;DHT22;37579;51.074;17.004;2023-08-12T15:13:25;26.30;53.40
39751;DHT22;37579;51.074;17.004;2023-08-12T15:15:51;26.20;53.40